Rzeszow-Jasionka Airport Rzeszow PL
ICAO: EPRZ
IATA: RZE
Category: Medium
Scheduled Services: Yes

Elevation: 675 ft
TransAlt. 6500 ft.

Airport Communications:
RZESZOW TWR:126.8

EPRZ Zoom In..

Runways:

(A) RW 09 length 10499 ft width 148 ft
---- / hdg 86

(B) RW 27 length 10499 ft width 148 ft
ILS 110.30 / hdg 266

Location; EPRZ
Day. 06 / Time. 23.00 Zulu
* QNH: 1009
* Temperature: 17° c. 62.6°f.
* Wind from: 090° Speed 06 kn.
Dewpoint: 14° c.
Visibility: 10 km or more,
No clouds below 1,500 m.
No cumulonimbus, and no significant weather
fenomena in the aerodrome or its vicinity.

EPRZ 062300Z 09006KT CAVOK 17/14 Q1009


Wind From 090°
Speed 06 kn.

 
 
jpsmedia worldairports.se 2020   terms of use